createdAt,value
2019-06-20T00:08:01.286Z,99.40
2019-06-20T00:10:29.886Z,99.00
2019-06-20T00:13:00.711Z,98.60
2019-06-20T00:15:27.570Z,98.90
2019-06-20T00:17:55.434Z,98.80
2019-06-20T00:22:51.595Z,98.10
2019-06-20T00:25:19.768Z,98.20
2019-06-20T00:30:17.125Z,98.80
2019-06-20T00:35:32.695Z,98.20
2019-06-20T00:38:00.594Z,97.40
2019-06-20T00:45:29.679Z,97.60
2019-06-20T00:48:17.747Z,97.40
2019-06-20T00:50:48.224Z,97.50
2019-06-20T00:53:16.411Z,97.10
2019-06-20T00:58:14.046Z,95.90
2019-06-20T01:03:26.871Z,95.30
2019-06-20T01:08:22.379Z,95.20
2019-06-20T01:10:50.167Z,95.30
2019-06-20T01:13:32.579Z,95.70
2019-06-20T01:15:50.149Z,95.60
2019-06-20T01:23:23.587Z,96.20
2019-06-20T01:28:29.856Z,96.40
2019-06-20T01:30:57.604Z,96.10
2019-06-20T02:55:06.818Z,97.50
2019-06-20T03:02:32.432Z,98.20
2019-06-20T03:05:00.652Z,98.50
2019-06-20T03:07:28.768Z,98.30
2019-06-20T03:17:21.440Z,98.90
2019-06-20T03:19:50.078Z,98.90
2019-06-20T03:22:18.123Z,98.60
2019-06-20T03:24:46.639Z,98.60
2019-06-20T03:27:14.744Z,98.10
2019-06-20T03:29:42.943Z,98.00
2019-06-20T03:32:10.793Z,97.90
2019-06-20T03:37:07.006Z,98.20
2019-06-20T03:39:35.887Z,98.20
2019-06-20T03:42:03.580Z,96.60
2019-06-20T03:44:31.629Z,97.90
2019-06-20T03:49:27.649Z,97.70
2019-06-20T03:51:55.476Z,97.00
2019-06-20T03:54:23.377Z,97.00
2019-06-20T03:56:51.229Z,96.60
2019-06-20T03:59:18.982Z,96.10
2019-06-20T04:01:49.299Z,95.40
2019-06-20T04:04:17.195Z,94.50
2019-06-20T04:06:45.071Z,93.60
2019-06-20T04:09:12.881Z,93.90
2019-06-20T04:11:40.746Z,93.80
2019-06-20T04:14:08.573Z,93.70
2019-06-20T04:16:36.441Z,91.60
2019-06-20T04:19:04.469Z,90.20
2019-06-20T04:21:32.065Z,90.20
2019-06-20T04:23:59.652Z,89.50
2019-06-20T04:26:27.377Z,88.50
2019-06-20T04:28:55.191Z,88.50
2019-06-20T04:31:23.313Z,88.00
2019-06-20T04:33:52.699Z,87.50
2019-06-20T04:36:20.678Z,87.50
2019-06-20T04:41:16.459Z,86.80
2019-06-20T04:46:19.919Z,86.70
2019-06-20T04:48:48.893Z,86.40
2019-06-20T04:51:16.948Z,86.10
2019-06-20T04:53:44.852Z,86.10
2019-06-20T04:56:13.441Z,85.90
2019-06-20T04:58:41.503Z,85.20
2019-06-20T05:01:09.373Z,85.00
2019-06-20T05:03:39.549Z,84.80
2019-06-20T05:06:07.699Z,84.60
2019-06-20T05:08:35.635Z,84.00
2019-06-20T05:11:03.484Z,84.10
2019-06-20T05:13:31.223Z,83.60
2019-06-20T05:15:59.080Z,83.20
2019-06-20T05:20:54.573Z,82.20
2019-06-20T05:23:22.318Z,82.20
2019-06-20T05:25:50.070Z,81.30
2019-06-20T05:28:17.746Z,81.20
2019-06-20T05:30:46.158Z,79.70
2019-06-20T05:33:14.556Z,79.40
2019-06-20T05:35:42.840Z,78.30
2019-06-20T05:38:10.771Z,77.60
2019-06-20T05:40:38.578Z,76.90
2019-06-20T05:43:06.350Z,76.50
2019-06-20T05:48:01.861Z,76.30
2019-06-20T05:50:29.647Z,77.50
2019-06-20T05:52:57.397Z,78.00
2019-06-20T05:55:25.267Z,76.70
2019-06-20T05:57:53.087Z,77.20
2019-06-20T06:00:20.995Z,77.10
2019-06-20T06:05:20.411Z,75.80
2019-06-20T06:07:48.320Z,74.00
2019-06-20T06:10:16.852Z,71.80
2019-06-20T06:12:45.215Z,72.80
2019-06-20T06:15:14.322Z,72.70
2019-06-20T06:17:42.194Z,70.00
2019-06-20T06:20:10.237Z,73.00
2019-06-20T06:22:38.022Z,73.10
2019-06-20T06:25:06.513Z,73.30
2019-06-20T06:27:34.370Z,72.80
2019-06-20T06:30:02.224Z,71.20
2019-06-20T06:32:39.524Z,71.40
2019-06-20T06:34:59.668Z,69.30
2019-06-20T06:37:27.456Z,69.20
2019-06-20T06:39:55.361Z,66.10
2019-06-20T06:42:23.143Z,66.00
2019-06-20T06:44:51.024Z,66.40
2019-06-20T06:47:18.776Z,66.50
2019-06-20T06:49:46.443Z,65.80
2019-06-20T06:52:14.187Z,64.50
2019-06-20T06:54:42.059Z,64.30
2019-06-20T06:57:09.889Z,65.10
2019-06-20T06:59:37.742Z,65.30
2019-06-20T07:02:08.344Z,64.40
2019-06-20T07:04:36.095Z,63.30
2019-06-20T07:09:35.532Z,63.10
2019-06-20T07:12:03.510Z,62.40
2019-06-20T07:14:31.433Z,62.60
2019-06-20T07:17:00.573Z,61.20
2019-06-20T07:19:29.581Z,59.70
2019-06-20T07:21:57.323Z,59.60
2019-06-20T07:24:25.081Z,58.80
2019-06-20T07:26:52.980Z,59.50
2019-06-20T07:29:20.893Z,56.40
2019-06-20T07:31:48.639Z,56.60
2019-06-20T07:34:16.313Z,57.30
2019-06-20T07:36:44.142Z,56.70
2019-06-20T07:39:12.285Z,53.30
2019-06-20T07:41:40.031Z,52.70
2019-06-20T07:44:07.876Z,50.00
2019-06-20T07:46:35.672Z,50.70
2019-06-20T07:49:03.607Z,50.70
2019-06-20T07:51:31.540Z,49.50
2019-06-20T07:53:59.666Z,48.50
2019-06-20T07:56:27.570Z,49.80
2019-06-20T07:58:55.523Z,45.90
2019-06-20T08:01:23.658Z,45.60
2019-06-20T08:03:51.820Z,46.20
2019-06-20T08:06:20.013Z,46.50
2019-06-20T08:08:48.160Z,45.70
2019-06-20T08:11:22.873Z,46.20
2019-06-20T08:13:50.946Z,46.90
2019-06-20T08:16:21.867Z,45.90
2019-06-20T08:18:51.080Z,46.00
2019-06-20T08:21:19.032Z,45.50
2019-06-20T08:26:14.411Z,44.80
2019-06-20T08:28:42.212Z,44.50
2019-06-20T08:31:10.271Z,44.10
2019-06-20T08:33:38.104Z,44.10
2019-06-20T08:36:10.334Z,44.10
2019-06-20T08:38:38.546Z,44.10
2019-06-20T08:41:06.707Z,44.10
2019-06-20T08:43:34.659Z,43.40
2019-06-20T08:46:04.080Z,43.80
2019-06-20T08:48:35.849Z,43.60
2019-06-20T08:53:35.293Z,43.10
2019-06-20T08:56:06.968Z,43.40
2019-06-20T08:58:36.181Z,42.70
2019-06-20T09:03:46.447Z,41.30
2019-06-20T09:06:14.445Z,41.60
2019-06-20T09:09:02.791Z,42.30
2019-06-20T09:11:30.706Z,41.00
2019-06-20T09:13:59.239Z,40.90
2019-06-20T09:16:27.447Z,40.90
2019-06-20T09:18:56.694Z,41.00
2019-06-20T09:21:26.232Z,41.10
2019-06-20T09:23:55.697Z,39.40
2019-06-20T09:28:55.632Z,39.70
2019-06-20T09:31:24.424Z,39.70
2019-06-20T09:33:54.148Z,39.60
2019-06-20T09:36:23.232Z,40.00
2019-06-20T09:38:52.498Z,38.80
2019-06-20T09:41:21.541Z,38.40
2019-06-20T09:44:19.767Z,38.30
2019-06-20T09:46:49.795Z,38.00
2019-06-20T09:54:40.893Z,37.80
2019-06-20T09:57:25.342Z,37.90
2019-06-20T10:00:09.934Z,38.00
2019-06-20T10:02:47.163Z,38.40
2019-06-20T10:05:18.855Z,38.50
2019-06-20T10:07:48.571Z,38.60
2019-06-20T10:10:18.225Z,37.00
2019-06-20T10:13:00.437Z,38.20
2019-06-20T10:15:47.935Z,38.00
2019-06-20T10:18:39.614Z,37.50
2019-06-20T10:21:07.260Z,42.30
2019-06-20T10:23:35.134Z,39.20
2019-06-20T10:30:58.469Z,34.20
2019-06-20T10:34:07.499Z,34.20
2019-06-20T10:36:40.734Z,35.60
2019-06-20T10:43:34.779Z,36.70
2019-06-20T10:49:50.377Z,36.10
2019-06-20T10:56:25.376Z,35.20
2019-06-20T11:00:30.091Z,33.60
2019-06-20T11:28:39.785Z,36.50
2019-06-20T11:31:14.343Z,36.50
2019-06-20T11:35:21.201Z,37.20
2019-06-20T11:38:03.727Z,37.10
2019-06-20T11:40:36.954Z,37.50
2019-06-20T11:43:14.476Z,36.50
2019-06-20T11:49:08.315Z,36.40
2019-06-20T11:55:24.962Z,34.80
2019-06-20T11:57:55.716Z,35.10
2019-06-20T12:02:40.539Z,34.40
2019-06-20T12:03:39.625Z,35.40
2019-06-20T12:07:05.439Z,33.90
2019-06-20T12:09:54.182Z,33.40
2019-06-20T12:13:02.688Z,35.60
2019-06-20T12:15:30.380Z,34.20
2019-06-20T12:17:58.041Z,37.20
2019-06-20T12:20:26.618Z,36.70
2019-06-20T12:23:10.693Z,38.60
2019-06-20T12:25:44.274Z,37.40
2019-06-20T12:28:14.878Z,36.10
2019-06-20T12:37:40.427Z,37.10
2019-06-20T12:40:39.288Z,38.30
2019-06-20T13:05:03.572Z,37.20
2019-06-20T13:07:35.537Z,36.80
2019-06-20T13:10:12.887Z,36.70
2019-06-20T13:12:57.727Z,35.70
2019-06-20T13:15:27.351Z,37.30
2019-06-20T13:17:55.199Z,36.40
2019-06-20T13:20:24.002Z,37.40
2019-06-20T13:24:13.454Z,37.80
2019-06-20T13:29:18.353Z,38.20
2019-06-20T13:32:00.601Z,39.30
2019-06-20T13:34:15.439Z,39.90
2019-06-20T13:36:43.146Z,40.10
2019-06-20T13:39:10.912Z,41.40
2019-06-20T13:41:40.789Z,43.30
2019-06-20T13:44:08.904Z,45.80
2019-06-20T13:46:36.455Z,46.80
2019-06-20T13:49:03.995Z,51.10
2019-06-20T13:51:31.551Z,53.30
2019-06-20T13:53:59.152Z,58.40
2019-06-20T13:56:26.744Z,59.70
2019-06-20T13:58:54.554Z,69.00
2019-06-20T14:01:22.479Z,75.10
2019-06-20T14:06:30.706Z,80.40
2019-06-20T14:09:16.687Z,84.10
2019-06-20T14:11:45.404Z,85.20
2019-06-20T14:14:14.891Z,91.40
2019-06-20T14:16:42.999Z,91.70
2019-06-20T14:19:10.586Z,93.10
2019-06-20T14:21:38.413Z,96.40
2019-06-20T14:24:06.039Z,95.40
2019-06-20T14:26:33.633Z,95.80
2019-06-20T14:29:01.250Z,96.60
2019-06-20T14:31:29.802Z,98.40
2019-06-20T14:33:58.244Z,97.50
2019-06-20T14:36:25.748Z,99.90
2019-06-20T14:38:53.802Z,99.90
2019-06-20T14:41:21.478Z,99.90
2019-06-20T14:43:49.633Z,99.90
2019-06-20T14:46:17.209Z,99.90
2019-06-20T14:48:45.524Z,99.90
2019-06-20T14:51:14.133Z,99.90
2019-06-20T14:53:43.909Z,99.90
2019-06-20T14:56:11.109Z,99.90
2019-06-20T14:58:38.693Z,99.90
2019-06-20T15:01:06.260Z,99.90
2019-06-20T15:03:33.889Z,99.90
2019-06-20T15:06:01.439Z,99.90
2019-06-20T15:08:29.057Z,99.90
2019-06-20T15:10:56.576Z,99.90
2019-06-20T15:13:24.127Z,99.90
2019-06-20T15:15:51.779Z,99.90
2019-06-20T15:18:19.295Z,99.90
2019-06-20T15:20:48.725Z,99.90
2019-06-20T15:23:17.245Z,99.90
2019-06-20T15:25:45.822Z,99.90
2019-06-20T15:28:14.287Z,99.90
2019-06-20T15:30:41.740Z,99.90
2019-06-20T15:33:12.868Z,99.90
2019-06-20T15:35:40.505Z,99.90
2019-06-20T15:38:08.023Z,99.90
2019-06-20T15:40:35.554Z,99.90
2019-06-20T15:43:03.146Z,99.90
2019-06-20T15:45:30.724Z,99.90
2019-06-20T15:47:58.292Z,99.90
2019-06-20T15:50:25.825Z,98.10
2019-06-20T15:52:53.372Z,99.00
2019-06-20T15:55:20.935Z,98.00
2019-06-20T15:57:48.551Z,99.50
2019-06-20T16:00:18.095Z,99.30
2019-06-20T16:02:45.692Z,96.80
2019-06-20T16:05:16.678Z,98.40
2019-06-20T16:07:44.222Z,97.80
2019-06-20T16:10:12.663Z,99.50
2019-06-20T16:12:40.221Z,99.90
2019-06-20T16:15:08.665Z,99.90
2019-06-20T16:17:36.250Z,99.90
2019-06-20T16:20:04.285Z,99.90
2019-06-20T17:43:54.210Z,73.40
2019-06-20T17:46:22.015Z,75.30
2019-06-20T17:48:50.118Z,75.20
2019-06-20T17:51:18.062Z,73.90
2019-06-20T17:53:49.721Z,68.20
2019-06-20T18:01:13.934Z,73.10
2019-06-20T18:06:09.431Z,76.50
2019-06-20T18:08:40.029Z,79.60
2019-06-20T18:11:19.717Z,80.90
2019-06-20T18:13:47.440Z,80.90
2019-06-20T18:16:24.712Z,81.60
2019-06-20T18:19:04.704Z,83.30
2019-06-20T18:21:32.579Z,86.40
2019-06-20T18:24:00.989Z,85.00
2019-06-20T18:26:43.383Z,79.80
2019-06-20T19:13:34.063Z,97.30
2019-06-20T19:16:03.766Z,97.10
2019-06-20T19:18:31.498Z,97.50
2019-06-20T19:20:59.085Z,97.50
2019-06-20T19:23:26.613Z,93.10
2019-06-20T19:25:54.178Z,94.40
2019-06-20T19:28:21.827Z,93.70
2019-06-20T19:30:51.315Z,90.80
2019-06-20T19:33:19.519Z,91.40
2019-06-20T19:35:47.878Z,91.20
2019-06-20T19:38:15.497Z,90.90
2019-06-20T19:40:47.283Z,89.70
2019-06-20T19:43:15.377Z,90.30
2019-06-20T19:45:43.053Z,91.30
2019-06-20T19:48:10.706Z,92.70
2019-06-20T19:50:38.690Z,92.80
2019-06-20T19:53:06.710Z,93.20
2019-06-20T19:55:34.517Z,94.30
2019-06-20T19:58:02.065Z,94.40
2019-06-20T20:00:29.675Z,95.50
2019-06-20T20:02:57.564Z,94.20
2019-06-20T20:05:25.472Z,92.70
2019-06-20T20:07:54.347Z,93.40
2019-06-20T20:10:38.138Z,93.10
2019-06-20T20:13:05.728Z,93.30
2019-06-20T20:15:34.321Z,93.50
2019-06-20T20:18:03.106Z,93.80
2019-06-20T20:20:32.684Z,93.80
2019-06-20T20:23:00.902Z,94.60
2019-06-20T20:25:28.640Z,93.60
2019-06-20T20:27:56.746Z,94.30
2019-06-20T20:30:24.682Z,93.60
2019-06-20T20:32:53.327Z,94.30
2019-06-20T20:35:34.831Z,94.20
2019-06-20T20:37:52.109Z,94.40
2019-06-20T20:40:20.191Z,93.90
2019-06-20T20:42:48.148Z,94.40
2019-06-20T20:45:15.878Z,93.80
2019-06-20T20:47:43.829Z,93.00
2019-06-20T20:50:12.347Z,92.60
2019-06-20T20:52:39.921Z,93.30
2019-06-20T20:55:08.906Z,92.10
2019-06-20T20:57:48.189Z,90.80
2019-06-20T21:00:23.867Z,91.10
2019-06-20T21:02:52.880Z,89.70
2019-06-20T21:05:21.667Z,90.10
